메인 페이지
METAR-TAF:

METAR-TAF

공항 :

벌링턴, 아이오와, 미국

위도: 40-46-22N, 경도: 091-07-31W, 고도: 212m

현재 날씨관측

예보는 38분 전, 21:53시(UTC)에 발표되었습니다.
13kt
온도 5°C
습도 75%
기압 1021 hPa
시정: 16.1km
고도 6500ft 상공 흐림

METAR: KBRL 252153Z AUTO 01013KT 10SM OVC065 05/01 A3015 RMK AO2 SLP215 T00500006

시각: 17:31 (22:31 UTC)

예보

예보는 5 시간 4분 전, 17:27시(UTC)에 발표되었습니다.
예보 대상 시간: 25일 18시부터 26일 18시까지 (UTC)
북북동12kt
시정: 10km
고도 4000ft 상공 구름 보통
고도 7000ft 상공 흐림
25일 2300시부터 (UTC)
북북동9kt
시정: 10km
고도 2500ft 상공 흐림
확률 30%
26일 04시부터 26일 07시까지 (UTC)
시정: 6.4km
고도 1000ft 상공 흐림
약한눈
26일 0700시부터 (UTC)
10kt
시정: 9.7km
고도 900ft 상공 흐림
약한눈
26일 1100시부터 (UTC)
10kt
시정: 4.8km
고도 800ft 상공 흐림
약한눈, 박무
26일 1500시부터 (UTC)
10kt
시정: 8.0km
고도 1400ft 상공 흐림
약한눈

TAF: KBRL 251727Z 2518/2618 03012KT P6SM SCT040 OVC070 FM252300 02009KT P6SM OVC025 PROB30 2604/2607 4SM -SN OVC010 FM260700 36010KT 6SM -SN OVC009 FM261100 36010KT 3SM -SN BR OVC008 FM261500 01010KT 5SM -SN OVC014

4,000개 이상의 공항 관측 자료 및 예보 (METAR 및 TAF 보고).

지도상에서 검색 가능한 기상관측소가 노란 점과 빨간 점으로 표시되어 있습니다.

기상관측소 명을 보려면 표시 위로 마우스를 이동하세요.

날씨 관측과 예보를 보려면 클릭하세요.

지도 변경 : 확대하려면 엑스 표시가 있는 녹색 버튼, 축소하려면 빼기 표시가 있는 녹색 버튼, 다음 페이지의 지도를 보려면 녹색 화살표를 클릭하세요.


METAR-TAF: